sensor_id;sensor_type;location;lat;lon;timestamp;P1;durP1;ratioP1;P2;durP2;ratioP2
19651;SDS011;9974;52.146;14.668;2022-09-09T00:00:24;5.32;;;2.83;;
19651;SDS011;9974;52.146;14.668;2022-09-09T00:03:04;4.63;;;2.78;;
19651;SDS011;9974;52.146;14.668;2022-09-09T00:05:59;3.22;;;2.35;;
19651;SDS011;9974;52.146;14.668;2022-09-09T00:11:40;3.28;;;2.50;;
19651;SDS011;9974;52.146;14.668;2022-09-09T00:14:42;3.90;;;2.70;;
19651;SDS011;9974;52.146;14.668;2022-09-09T00:17:21;3.67;;;2.60;;
19651;SDS011;9974;52.146;14.668;2022-09-09T00:20:13;3.80;;;2.47;;
19651;SDS011;9974;52.146;14.668;2022-09-09T00:22:47;3.85;;;2.40;;
19651;SDS011;9974;52.146;14.668;2022-09-09T00:25:28;3.50;;;2.40;;
19651;SDS011;9974;52.146;14.668;2022-09-09T00:28:01;3.72;;;2.60;;
19651;SDS011;9974;52.146;14.668;2022-09-09T00:30:34;2.83;;;2.50;;
19651;SDS011;9974;52.146;14.668;2022-09-09T00:33:09;4.00;;;2.78;;
19651;SDS011;9974;52.146;14.668;2022-09-09T00:35:41;3.28;;;2.47;;
19651;SDS011;9974;52.146;14.668;2022-09-09T00:38:14;2.78;;;2.33;;
19651;SDS011;9974;52.146;14.668;2022-09-09T00:43:42;7.63;;;2.45;;
19651;SDS011;9974;52.146;14.668;2022-09-09T00:57:33;3.95;;;2.80;;
19651;SDS011;9974;52.146;14.668;2022-09-09T01:00:20;3.60;;;2.60;;
19651;SDS011;9974;52.146;14.668;2022-09-09T01:05:40;6.15;;;3.25;;
19651;SDS011;9974;52.146;14.668;2022-09-09T01:11:37;4.07;;;2.70;;
19651;SDS011;9974;52.146;14.668;2022-09-09T01:17:15;3.70;;;3.03;;
19651;SDS011;9974;52.146;14.668;2022-09-09T01:22:52;3.85;;;3.33;;
19651;SDS011;9974;52.146;14.668;2022-09-09T01:28:09;4.82;;;3.40;;
19651;SDS011;9974;52.146;14.668;2022-09-09T01:30:42;4.88;;;3.28;;
19651;SDS011;9974;52.146;14.668;2022-09-09T01:33:09;4.43;;;3.17;;
19651;SDS011;9974;52.146;14.668;2022-09-09T01:35:57;3.58;;;2.72;;
19651;SDS011;9974;52.146;14.668;2022-09-09T01:38:25;4.55;;;2.70;;
19651;SDS011;9974;52.146;14.668;2022-09-09T01:40:54;4.55;;;2.88;;
19651;SDS011;9974;52.146;14.668;2022-09-09T01:43:21;4.43;;;2.92;;
19651;SDS011;9974;52.146;14.668;2022-09-09T01:45:49;3.70;;;2.72;;
19651;SDS011;9974;52.146;14.668;2022-09-09T01:48:19;5.72;;;2.70;;
19651;SDS011;9974;52.146;14.668;2022-09-09T01:50:48;4.43;;;2.88;;
19651;SDS011;9974;52.146;14.668;2022-09-09T01:53:14;4.05;;;2.92;;
19651;SDS011;9974;52.146;14.668;2022-09-09T01:55:45;4.55;;;2.90;;
19651;SDS011;9974;52.146;14.668;2022-09-09T02:04:01;3.40;;;2.92;;
19651;SDS011;9974;52.146;14.668;2022-09-09T02:06:48;7.70;;;3.00;;
19651;SDS011;9974;52.146;14.668;2022-09-09T02:09:17;4.22;;;2.97;;
19651;SDS011;9974;52.146;14.668;2022-09-09T02:11:48;3.95;;;3.13;;
19651;SDS011;9974;52.146;14.668;2022-09-09T02:14:25;4.43;;;3.00;;
19651;SDS011;9974;52.146;14.668;2022-09-09T02:17:01;4.50;;;3.08;;
19651;SDS011;9974;52.146;14.668;2022-09-09T02:19:39;5.18;;;3.45;;
19651;SDS011;9974;52.146;14.668;2022-09-09T02:22:13;5.80;;;3.97;;
19651;SDS011;9974;52.146;14.668;2022-09-09T02:24:45;4.10;;;2.95;;
19651;SDS011;9974;52.146;14.668;2022-09-09T02:27:12;7.15;;;3.90;;
19651;SDS011;9974;52.146;14.668;2022-09-09T02:29:41;5.00;;;3.80;;
19651;SDS011;9974;52.146;14.668;2022-09-09T02:32:11;3.90;;;2.97;;
19651;SDS011;9974;52.146;14.668;2022-09-09T02:34:49;5.95;;;3.35;;
19651;SDS011;9974;52.146;14.668;2022-09-09T02:37:26;4.78;;;3.22;;
19651;SDS011;9974;52.146;14.668;2022-09-09T02:40:00;5.30;;;3.67;;
19651;SDS011;9974;52.146;14.668;2022-09-09T02:42:31;3.92;;;3.13;;
19651;SDS011;9974;52.146;14.668;2022-09-09T02:44:57;3.50;;;2.92;;
19651;SDS011;9974;52.146;14.668;2022-09-09T02:47:32;5.10;;;3.35;;
19651;SDS011;9974;52.146;14.668;2022-09-09T02:56:09;4.80;;;3.42;;
19651;SDS011;9974;52.146;14.668;2022-09-09T02:58:43;4.53;;;2.97;;
19651;SDS011;9974;52.146;14.668;2022-09-09T03:01:09;5.65;;;3.20;;
19651;SDS011;9974;52.146;14.668;2022-09-09T03:03:36;4.57;;;3.17;;
19651;SDS011;9974;52.146;14.668;2022-09-09T03:06:02;3.72;;;2.95;;
19651;SDS011;9974;52.146;14.668;2022-09-09T03:08:27;4.85;;;3.83;;
19651;SDS011;9974;52.146;14.668;2022-09-09T03:10:58;5.07;;;3.50;;
19651;SDS011;9974;52.146;14.668;2022-09-09T03:13:26;9.52;;;3.45;;
19651;SDS011;9974;52.146;14.668;2022-09-09T03:15:52;8.32;;;3.80;;
19651;SDS011;9974;52.146;14.668;2022-09-09T03:18:18;3.33;;;2.75;;
19651;SDS011;9974;52.146;14.668;2022-09-09T03:20:43;4.43;;;3.78;;
19651;SDS011;9974;52.146;14.668;2022-09-09T03:23:13;9.40;;;3.72;;
19651;SDS011;9974;52.146;14.668;2022-09-09T03:25:39;13.90;;;3.63;;
19651;SDS011;9974;52.146;14.668;2022-09-09T03:28:11;5.78;;;4.10;;
19651;SDS011;9974;52.146;14.668;2022-09-09T03:30:37;4.07;;;3.60;;
19651;SDS011;9974;52.146;14.668;2022-09-09T03:33:03;9.68;;;3.30;;
19651;SDS011;9974;52.146;14.668;2022-09-09T03:35:29;17.02;;;4.10;;
19651;SDS011;9974;52.146;14.668;2022-09-09T03:37:54;24.17;;;3.65;;
19651;SDS011;9974;52.146;14.668;2022-09-09T03:40:20;4.70;;;3.33;;
19651;SDS011;9974;52.146;14.668;2022-09-09T03:42:46;6.20;;;3.28;;
19651;SDS011;9974;52.146;14.668;2022-09-09T03:45:13;10.82;;;4.15;;
19651;SDS011;9974;52.146;14.668;2022-09-09T03:47:39;4.68;;;3.63;;
19651;SDS011;9974;52.146;14.668;2022-09-09T03:50:06;5.00;;;3.95;;
19651;SDS011;9974;52.146;14.668;2022-09-09T03:52:37;5.38;;;4.15;;
19651;SDS011;9974;52.146;14.668;2022-09-09T03:55:05;5.50;;;4.50;;
19651;SDS011;9974;52.146;14.668;2022-09-09T03:57:32;6.85;;;4.20;;
19651;SDS011;9974;52.146;14.668;2022-09-09T03:59:59;5.53;;;4.68;;
19651;SDS011;9974;52.146;14.668;2022-09-09T04:02:29;12.68;;;4.53;;
19651;SDS011;9974;52.146;14.668;2022-09-09T04:04:56;5.45;;;3.95;;
19651;SDS011;9974;52.146;14.668;2022-09-09T04:07:21;6.93;;;4.32;;
19651;SDS011;9974;52.146;14.668;2022-09-09T04:09:47;4.78;;;3.70;;
19651;SDS011;9974;52.146;14.668;2022-09-09T04:12:13;5.10;;;3.97;;
19651;SDS011;9974;52.146;14.668;2022-09-09T04:14:39;7.10;;;3.80;;
19651;SDS011;9974;52.146;14.668;2022-09-09T04:17:04;5.07;;;3.65;;
19651;SDS011;9974;52.146;14.668;2022-09-09T04:19:31;4.90;;;3.40;;
19651;SDS011;9974;52.146;14.668;2022-09-09T04:21:57;5.50;;;3.65;;
19651;SDS011;9974;52.146;14.668;2022-09-09T04:24:24;5.93;;;3.38;;
19651;SDS011;9974;52.146;14.668;2022-09-09T04:26:52;4.85;;;3.70;;
19651;SDS011;9974;52.146;14.668;2022-09-09T04:29:18;5.45;;;2.97;;
19651;SDS011;9974;52.146;14.668;2022-09-09T04:31:44;5.72;;;3.58;;
19651;SDS011;9974;52.146;14.668;2022-09-09T04:34:10;4.50;;;3.13;;
19651;SDS011;9974;52.146;14.668;2022-09-09T04:36:36;4.68;;;3.65;;
19651;SDS011;9974;52.146;14.668;2022-09-09T04:39:05;4.75;;;3.33;;
19651;SDS011;9974;52.146;14.668;2022-09-09T04:41:31;5.68;;;3.90;;
19651;SDS011;9974;52.146;14.668;2022-09-09T04:43:58;4.40;;;3.35;;
19651;SDS011;9974;52.146;14.668;2022-09-09T04:46:25;4.78;;;3.42;;
19651;SDS011;9974;52.146;14.668;2022-09-09T04:48:51;6.28;;;3.75;;
19651;SDS011;9974;52.146;14.668;2022-09-09T04:51:17;5.43;;;3.25;;
19651;SDS011;9974;52.146;14.668;2022-09-09T04:53:43;4.97;;;3.60;;
19651;SDS011;9974;52.146;14.668;2022-09-09T04:56:12;7.55;;;3.72;;
19651;SDS011;9974;52.146;14.668;2022-09-09T04:58:40;4.97;;;3.63;;
19651;SDS011;9974;52.146;14.668;2022-09-09T05:01:09;5.43;;;3.20;;
19651;SDS011;9974;52.146;14.668;2022-09-09T05:03:43;4.93;;;3.35;;
19651;SDS011;9974;52.146;14.668;2022-09-09T05:06:13;4.60;;;3.10;;
19651;SDS011;9974;52.146;14.668;2022-09-09T05:08:42;3.55;;;2.90;;
19651;SDS011;9974;52.146;14.668;2022-09-09T05:11:13;3.75;;;2.60;;
19651;SDS011;9974;52.146;14.668;2022-09-09T05:13:49;7.32;;;3.00;;
19651;SDS011;9974;52.146;14.668;2022-09-09T05:16:15;4.13;;;2.90;;
19651;SDS011;9974;52.146;14.668;2022-09-09T05:18:43;4.30;;;3.25;;
19651;SDS011;9974;52.146;14.668;2022-09-09T05:21:09;6.82;;;2.88;;
19651;SDS011;9974;52.146;14.668;2022-09-09T05:23:36;4.20;;;3.15;;
19651;SDS011;9974;52.146;14.668;2022-09-09T05:26:03;4.07;;;2.70;;
19651;SDS011;9974;52.146;14.668;2022-09-09T05:28:29;3.83;;;2.80;;
19651;SDS011;9974;52.146;14.668;2022-09-09T05:30:56;4.15;;;3.25;;
19651;SDS011;9974;52.146;14.668;2022-09-09T05:33:29;5.75;;;2.55;;
19651;SDS011;9974;52.146;14.668;2022-09-09T05:35:59;5.57;;;2.60;;
19651;SDS011;9974;52.146;14.668;2022-09-09T05:38:28;7.35;;;3.03;;
19651;SDS011;9974;52.146;14.668;2022-09-09T05:40:54;4.25;;;2.97;;
19651;SDS011;9974;52.146;14.668;2022-09-09T05:43:21;4.45;;;3.08;;
19651;SDS011;9974;52.146;14.668;2022-09-09T05:45:57;4.00;;;2.75;;
19651;SDS011;9974;52.146;14.668;2022-09-09T05:48:33;4.63;;;3.03;;
19651;SDS011;9974;52.146;14.668;2022-09-09T05:51:04;5.07;;;3.10;;
19651;SDS011;9974;52.146;14.668;2022-09-09T05:53:32;5.85;;;3.25;;
19651;SDS011;9974;52.146;14.668;2022-09-09T05:56:03;4.93;;;3.22;;
19651;SDS011;9974;52.146;14.668;2022-09-09T05:58:37;3.65;;;2.80;;
19651;SDS011;9974;52.146;14.668;2022-09-09T06:03:32;3.72;;;2.55;;
19651;SDS011;9974;52.146;14.668;2022-09-09T06:06:01;5.97;;;3.30;;
19651;SDS011;9974;52.146;14.668;2022-09-09T06:08:32;4.38;;;2.42;;
19651;SDS011;9974;52.146;14.668;2022-09-09T06:11:05;3.28;;;2.70;;
19651;SDS011;9974;52.146;14.668;2022-09-09T06:13:33;4.72;;;3.25;;
19651;SDS011;9974;52.146;14.668;2022-09-09T06:16:02;4.57;;;2.67;;
19651;SDS011;9974;52.146;14.668;2022-09-09T06:18:29;4.30;;;3.00;;
19651;SDS011;9974;52.146;14.668;2022-09-09T06:20:56;4.32;;;2.75;;
19651;SDS011;9974;52.146;14.668;2022-09-09T06:23:27;4.13;;;2.78;;
19651;SDS011;9974;52.146;14.668;2022-09-09T06:28:45;3.13;;;2.75;;
19651;SDS011;9974;52.146;14.668;2022-09-09T06:31:13;4.90;;;2.80;;
19651;SDS011;9974;52.146;14.668;2022-09-09T06:33:48;5.45;;;2.95;;
19651;SDS011;9974;52.146;14.668;2022-09-09T06:36:16;4.47;;;3.05;;
19651;SDS011;9974;52.146;14.668;2022-09-09T06:38:45;3.28;;;2.65;;
19651;SDS011;9974;52.146;14.668;2022-09-09T06:41:11;3.50;;;2.72;;
19651;SDS011;9974;52.146;14.668;2022-09-09T06:43:39;3.22;;;2.47;;
19651;SDS011;9974;52.146;14.668;2022-09-09T06:48:34;3.70;;;2.65;;
19651;SDS011;9974;52.146;14.668;2022-09-09T06:51:04;3.47;;;2.60;;
19651;SDS011;9974;52.146;14.668;2022-09-09T06:53:33;4.07;;;2.72;;
19651;SDS011;9974;52.146;14.668;2022-09-09T06:56:13;6.03;;;2.60;;
19651;SDS011;9974;52.146;14.668;2022-09-09T06:58:48;4.03;;;2.70;;
19651;SDS011;9974;52.146;14.668;2022-09-09T07:01:18;3.45;;;2.42;;
19651;SDS011;9974;52.146;14.668;2022-09-09T07:03:49;3.45;;;2.78;;
19651;SDS011;9974;52.146;14.668;2022-09-09T07:06:38;7.20;;;2.60;;
19651;SDS011;9974;52.146;14.668;2022-09-09T07:09:08;5.20;;;2.70;;
19651;SDS011;9974;52.146;14.668;2022-09-09T07:11:38;3.25;;;2.30;;
19651;SDS011;9974;52.146;14.668;2022-09-09T07:14:06;9.93;;;2.60;;
19651;SDS011;9974;52.146;14.668;2022-09-09T07:16:33;3.88;;;2.50;;
19651;SDS011;9974;52.146;14.668;2022-09-09T07:19:02;4.68;;;2.22;;
19651;SDS011;9974;52.146;14.668;2022-09-09T07:21:29;2.53;;;1.80;;
19651;SDS011;9974;52.146;14.668;2022-09-09T07:23:57;5.25;;;2.15;;
19651;SDS011;9974;52.146;14.668;2022-09-09T07:26:23;2.90;;;2.15;;
19651;SDS011;9974;52.146;14.668;2022-09-09T07:28:52;5.53;;;2.63;;
19651;SDS011;9974;52.146;14.668;2022-09-09T07:31:22;3.83;;;2.20;;
19651;SDS011;9974;52.146;14.668;2022-09-09T07:33:56;2.75;;;1.70;;
19651;SDS011;9974;52.146;14.668;2022-09-09T07:36:25;2.88;;;1.77;;
19651;SDS011;9974;52.146;14.668;2022-09-09T07:38:54;2.97;;;1.90;;
19651;SDS011;9974;52.146;14.668;2022-09-09T07:41:47;3.50;;;1.83;;
19651;SDS011;9974;52.146;14.668;2022-09-09T07:44:15;8.55;;;3.38;;
19651;SDS011;9974;52.146;14.668;2022-09-09T07:46:46;3.42;;;1.98;;
19651;SDS011;9974;52.146;14.668;2022-09-09T07:49:12;3.45;;;1.63;;
19651;SDS011;9974;52.146;14.668;2022-09-09T07:51:40;7.47;;;2.15;;
19651;SDS011;9974;52.146;14.668;2022-09-09T07:54:09;4.00;;;1.80;;
19651;SDS011;9974;52.146;14.668;2022-09-09T07:56:37;3.20;;;1.95;;
19651;SDS011;9974;52.146;14.668;2022-09-09T07:59:04;2.55;;;1.65;;
19651;SDS011;9974;52.146;14.668;2022-09-09T08:01:52;4.15;;;2.00;;
19651;SDS011;9974;52.146;14.668;2022-09-09T08:04:20;3.65;;;1.65;;
19651;SDS011;9974;52.146;14.668;2022-09-09T08:06:55;4.95;;;1.50;;
19651;SDS011;9974;52.146;14.668;2022-09-09T08:09:23;6.95;;;1.65;;
19651;SDS011;9974;52.146;14.668;2022-09-09T08:11:51;4.45;;;1.52;;
19651;SDS011;9974;52.146;14.668;2022-09-09T08:14:18;6.25;;;1.67;;
19651;SDS011;9974;52.146;14.668;2022-09-09T08:16:45;3.08;;;1.42;;
19651;SDS011;9974;52.146;14.668;2022-09-09T08:19:12;3.40;;;2.03;;
19651;SDS011;9974;52.146;14.668;2022-09-09T08:21:40;1.67;;;1.15;;
19651;SDS011;9974;52.146;14.668;2022-09-09T08:24:07;4.50;;;1.45;;
19651;SDS011;9974;52.146;14.668;2022-09-09T08:26:39;2.25;;;1.27;;
19651;SDS011;9974;52.146;14.668;2022-09-09T08:29:08;3.05;;;1.33;;
19651;SDS011;9974;52.146;14.668;2022-09-09T08:31:36;2.30;;;1.15;;
19651;SDS011;9974;52.146;14.668;2022-09-09T08:34:05;3.67;;;1.23;;
19651;SDS011;9974;52.146;14.668;2022-09-09T08:36:33;4.68;;;1.70;;
19651;SDS011;9974;52.146;14.668;2022-09-09T08:39:10;3.97;;;1.98;;
19651;SDS011;9974;52.146;14.668;2022-09-09T08:47:35;2.72;;;1.27;;
19651;SDS011;9974;52.146;14.668;2022-09-09T08:50:35;4.80;;;1.40;;
19651;SDS011;9974;52.146;14.668;2022-09-09T08:58:27;3.58;;;1.27;;
19651;SDS011;9974;52.146;14.668;2022-09-09T09:06:04;3.55;;;0.95;;
19651;SDS011;9974;52.146;14.668;2022-09-09T09:08:55;3.05;;;0.93;;
19651;SDS011;9974;52.146;14.668;2022-09-09T09:11:46;3.85;;;1.10;;
19651;SDS011;9974;52.146;14.668;2022-09-09T09:16:54;3.50;;;1.02;;
19651;SDS011;9974;52.146;14.668;2022-09-09T09:19:25;2.05;;;0.80;;
19651;SDS011;9974;52.146;14.668;2022-09-09T09:22:41;2.03;;;0.68;;
19651;SDS011;9974;52.146;14.668;2022-09-09T09:27:40;3.95;;;0.70;;
19651;SDS011;9974;52.146;14.668;2022-09-09T09:30:19;5.20;;;1.20;;
19651;SDS011;9974;52.146;14.668;2022-09-09T09:35:30;1.27;;;0.63;;
19651;SDS011;9974;52.146;14.668;2022-09-09T09:37:56;1.70;;;1.02;;
19651;SDS011;9974;52.146;14.668;2022-09-09T09:40:22;3.70;;;1.00;;
19651;SDS011;9974;52.146;14.668;2022-09-09T09:42:49;1.92;;;0.82;;
19651;SDS011;9974;52.146;14.668;2022-09-09T09:45:32;1.65;;;0.90;;
19651;SDS011;9974;52.146;14.668;2022-09-09T09:48:04;3.58;;;0.80;;
19651;SDS011;9974;52.146;14.668;2022-09-09T09:50:31;2.67;;;0.95;;
19651;SDS011;9974;52.146;14.668;2022-09-09T09:53:16;4.13;;;1.02;;
19651;SDS011;9974;52.146;14.668;2022-09-09T09:58:23;4.30;;;1.05;;
19651;SDS011;9974;52.146;14.668;2022-09-09T10:00:53;3.75;;;1.17;;
19651;SDS011;9974;52.146;14.668;2022-09-09T10:03:32;4.35;;;1.20;;
19651;SDS011;9974;52.146;14.668;2022-09-09T10:06:02;1.23;;;0.65;;
19651;SDS011;9974;52.146;14.668;2022-09-09T10:08:29;2.75;;;1.17;;
19651;SDS011;9974;52.146;14.668;2022-09-09T10:13:53;4.68;;;1.00;;
19651;SDS011;9974;52.146;14.668;2022-09-09T10:19:31;3.17;;;0.90;;
19651;SDS011;9974;52.146;14.668;2022-09-09T10:22:08;4.53;;;0.95;;
19651;SDS011;9974;52.146;14.668;2022-09-09T10:34:17;3.03;;;0.90;;
19651;SDS011;9974;52.146;14.668;2022-09-09T10:37:01;2.58;;;0.68;;
19651;SDS011;9974;52.146;14.668;2022-09-09T10:39:41;2.40;;;0.65;;
19651;SDS011;9974;52.146;14.668;2022-09-09T10:42:14;1.23;;;0.70;;
19651;SDS011;9974;52.146;14.668;2022-09-09T10:47:50;3.08;;;0.90;;
19651;SDS011;9974;52.146;14.668;2022-09-09T10:50:42;3.90;;;1.10;;
19651;SDS011;9974;52.146;14.668;2022-09-09T10:56:03;5.63;;;0.93;;
19651;SDS011;9974;52.146;14.668;2022-09-09T11:01:44;3.97;;;1.08;;
19651;SDS011;9974;52.146;14.668;2022-09-09T11:04:22;1.23;;;0.50;;
19651;SDS011;9974;52.146;14.668;2022-09-09T11:06:55;1.92;;;0.70;;
19651;SDS011;9974;52.146;14.668;2022-09-09T11:09:22;2.35;;;0.50;;
19651;SDS011;9974;52.146;14.668;2022-09-09T11:11:53;5.35;;;0.93;;
19651;SDS011;9974;52.146;14.668;2022-09-09T11:14:22;2.42;;;0.47;;
19651;SDS011;9974;52.146;14.668;2022-09-09T11:17:18;2.60;;;0.93;;
19651;SDS011;9974;52.146;14.668;2022-09-09T11:19:52;1.95;;;0.90;;
19651;SDS011;9974;52.146;14.668;2022-09-09T11:25:07;1.48;;;0.45;;
19651;SDS011;9974;52.146;14.668;2022-09-09T11:36:08;2.75;;;0.73;;
19651;SDS011;9974;52.146;14.668;2022-09-09T11:44:39;3.00;;;0.73;;
19651;SDS011;9974;52.146;14.668;2022-09-09T11:47:20;7.47;;;1.15;;
19651;SDS011;9974;52.146;14.668;2022-09-09T11:49:54;5.78;;;0.82;;
19651;SDS011;9974;52.146;14.668;2022-09-09T11:52:24;3.83;;;0.63;;
19651;SDS011;9974;52.146;14.668;2022-09-09T11:55:11;3.70;;;0.70;;
19651;SDS011;9974;52.146;14.668;2022-09-09T11:57:56;3.65;;;0.95;;
19651;SDS011;9974;52.146;14.668;2022-09-09T12:00:37;1.85;;;0.80;;
19651;SDS011;9974;52.146;14.668;2022-09-09T12:06:27;2.53;;;0.82;;
19651;SDS011;9974;52.146;14.668;2022-09-09T12:09:12;2.63;;;0.80;;
19651;SDS011;9974;52.146;14.668;2022-09-09T12:11:52;2.88;;;0.80;;
19651;SDS011;9974;52.146;14.668;2022-09-09T12:14:19;2.45;;;0.60;;
19651;SDS011;9974;52.146;14.668;2022-09-09T12:17:19;3.63;;;0.80;;
19651;SDS011;9974;52.146;14.668;2022-09-09T12:19:48;4.15;;;0.77;;
19651;SDS011;9974;52.146;14.668;2022-09-09T12:22:58;2.50;;;0.63;;
19651;SDS011;9974;52.146;14.668;2022-09-09T12:28:24;4.28;;;0.75;;
19651;SDS011;9974;52.146;14.668;2022-09-09T12:31:34;1.48;;;0.40;;
19651;SDS011;9974;52.146;14.668;2022-09-09T12:34:29;2.25;;;0.70;;
19651;SDS011;9974;52.146;14.668;2022-09-09T12:39:53;4.03;;;0.70;;
19651;SDS011;9974;52.146;14.668;2022-09-09T12:42:24;2.58;;;0.70;;
19651;SDS011;9974;52.146;14.668;2022-09-09T12:44:58;3.78;;;0.82;;
19651;SDS011;9974;52.146;14.668;2022-09-09T12:47:38;1.95;;;0.40;;
19651;SDS011;9974;52.146;14.668;2022-09-09T12:50:12;3.03;;;0.80;;
19651;SDS011;9974;52.146;14.668;2022-09-09T12:52:47;1.42;;;0.63;;
19651;SDS011;9974;52.146;14.668;2022-09-09T12:55:19;4.05;;;0.60;;
19651;SDS011;9974;52.146;14.668;2022-09-09T12:57:49;2.53;;;0.70;;
19651;SDS011;9974;52.146;14.668;2022-09-09T13:05:16;3.40;;;0.60;;
19651;SDS011;9974;52.146;14.668;2022-09-09T13:07:48;3.20;;;0.95;;
19651;SDS011;9974;52.146;14.668;2022-09-09T13:10:15;1.75;;;0.47;;
19651;SDS011;9974;52.146;14.668;2022-09-09T13:12:48;0.57;;;0.52;;
19651;SDS011;9974;52.146;14.668;2022-09-09T13:15:24;2.88;;;0.60;;
19651;SDS011;9974;52.146;14.668;2022-09-09T13:17:54;2.45;;;0.75;;
19651;SDS011;9974;52.146;14.668;2022-09-09T13:20:27;2.92;;;0.60;;
19651;SDS011;9974;52.146;14.668;2022-09-09T13:22:53;1.95;;;0.65;;
19651;SDS011;9974;52.146;14.668;2022-09-09T13:25:24;2.17;;;0.90;;
19651;SDS011;9974;52.146;14.668;2022-09-09T13:27:57;3.05;;;1.00;;
19651;SDS011;9974;52.146;14.668;2022-09-09T13:33:00;1.48;;;0.60;;
19651;SDS011;9974;52.146;14.668;2022-09-09T13:35:45;1.20;;;0.40;;
19651;SDS011;9974;52.146;14.668;2022-09-09T13:38:28;2.35;;;0.77;;
19651;SDS011;9974;52.146;14.668;2022-09-09T13:41:04;1.73;;;0.43;;
19651;SDS011;9974;52.146;14.668;2022-09-09T13:43:36;1.60;;;0.80;;
19651;SDS011;9974;52.146;14.668;2022-09-09T13:54:06;3.28;;;1.17;;
19651;SDS011;9974;52.146;14.668;2022-09-09T13:56:35;5.30;;;1.13;;
19651;SDS011;9974;52.146;14.668;2022-09-09T13:59:03;3.40;;;0.80;;
19651;SDS011;9974;52.146;14.668;2022-09-09T14:01:30;2.95;;;1.17;;
19651;SDS011;9974;52.146;14.668;2022-09-09T14:03:59;2.22;;;0.50;;
19651;SDS011;9974;52.146;14.668;2022-09-09T14:06:25;3.55;;;0.50;;
19651;SDS011;9974;52.146;14.668;2022-09-09T14:08:52;2.63;;;0.70;;
19651;SDS011;9974;52.146;14.668;2022-09-09T14:11:19;2.30;;;0.93;;
19651;SDS011;9974;52.146;14.668;2022-09-09T14:13:46;1.27;;;0.75;;
19651;SDS011;9974;52.146;14.668;2022-09-09T14:16:14;1.67;;;0.47;;
19651;SDS011;9974;52.146;14.668;2022-09-09T14:18:41;4.53;;;1.02;;
19651;SDS011;9974;52.146;14.668;2022-09-09T14:21:06;0.95;;;0.57;;
19651;SDS011;9974;52.146;14.668;2022-09-09T14:23:33;2.10;;;0.50;;
19651;SDS011;9974;52.146;14.668;2022-09-09T14:25:59;3.67;;;0.57;;
19651;SDS011;9974;52.146;14.668;2022-09-09T14:28:25;1.80;;;0.73;;
19651;SDS011;9974;52.146;14.668;2022-09-09T14:30:51;1.45;;;0.55;;
19651;SDS011;9974;52.146;14.668;2022-09-09T14:33:17;3.20;;;0.65;;
19651;SDS011;9974;52.146;14.668;2022-09-09T14:35:43;1.98;;;0.32;;
19651;SDS011;9974;52.146;14.668;2022-09-09T14:38:09;2.05;;;0.50;;
19651;SDS011;9974;52.146;14.668;2022-09-09T14:40:36;1.25;;;0.43;;
19651;SDS011;9974;52.146;14.668;2022-09-09T14:43:03;2.72;;;0.88;;
19651;SDS011;9974;52.146;14.668;2022-09-09T14:45:30;3.42;;;0.70;;
19651;SDS011;9974;52.146;14.668;2022-09-09T14:47:56;4.15;;;0.82;;
19651;SDS011;9974;52.146;14.668;2022-09-09T14:50:23;1.85;;;0.43;;
19651;SDS011;9974;52.146;14.668;2022-09-09T14:52:49;3.47;;;0.60;;
19651;SDS011;9974;52.146;14.668;2022-09-09T14:55:15;3.92;;;1.00;;
19651;SDS011;9974;52.146;14.668;2022-09-09T14:57:41;1.17;;;0.40;;
19651;SDS011;9974;52.146;14.668;2022-09-09T15:00:08;2.33;;;0.57;;
19651;SDS011;9974;52.146;14.668;2022-09-09T15:02:35;5.38;;;0.85;;
19651;SDS011;9974;52.146;14.668;2022-09-09T15:05:01;2.38;;;0.70;;
19651;SDS011;9974;52.146;14.668;2022-09-09T15:07:27;3.40;;;0.75;;
19651;SDS011;9974;52.146;14.668;2022-09-09T15:09:54;1.70;;;0.55;;
19651;SDS011;9974;52.146;14.668;2022-09-09T15:12:20;3.08;;;0.95;;
19651;SDS011;9974;52.146;14.668;2022-09-09T15:14:46;4.20;;;1.08;;
19651;SDS011;9974;52.146;14.668;2022-09-09T15:17:13;1.88;;;1.08;;
19651;SDS011;9974;52.146;14.668;2022-09-09T15:19:39;2.15;;;0.85;;
19651;SDS011;9974;52.146;14.668;2022-09-09T15:22:05;2.35;;;0.85;;
19651;SDS011;9974;52.146;14.668;2022-09-09T15:24:34;2.78;;;1.00;;
19651;SDS011;9974;52.146;14.668;2022-09-09T15:27:00;2.85;;;1.17;;
19651;SDS011;9974;52.146;14.668;2022-09-09T15:29:27;2.00;;;0.63;;
19651;SDS011;9974;52.146;14.668;2022-09-09T15:31:53;2.50;;;0.80;;
19651;SDS011;9974;52.146;14.668;2022-09-09T15:34:20;3.22;;;1.10;;
19651;SDS011;9974;52.146;14.668;2022-09-09T15:36:46;1.23;;;0.50;;
19651;SDS011;9974;52.146;14.668;2022-09-09T15:39:13;4.55;;;0.68;;
19651;SDS011;9974;52.146;14.668;2022-09-09T15:41:42;1.55;;;0.52;;
19651;SDS011;9974;52.146;14.668;2022-09-09T15:44:10;2.78;;;0.75;;
19651;SDS011;9974;52.146;14.668;2022-09-09T15:46:41;2.50;;;0.68;;
19651;SDS011;9974;52.146;14.668;2022-09-09T15:51:44;3.50;;;0.40;;
19651;SDS011;9974;52.146;14.668;2022-09-09T15:54:13;1.65;;;0.50;;
19651;SDS011;9974;52.146;14.668;2022-09-09T15:56:45;1.63;;;0.70;;
19651;SDS011;9974;52.146;14.668;2022-09-09T15:59:13;0.93;;;0.30;;
19651;SDS011;9974;52.146;14.668;2022-09-09T16:01:40;2.55;;;0.60;;
19651;SDS011;9974;52.146;14.668;2022-09-09T16:04:07;1.20;;;0.57;;
19651;SDS011;9974;52.146;14.668;2022-09-09T16:06:33;4.15;;;0.70;;
19651;SDS011;9974;52.146;14.668;2022-09-09T16:08:59;0.98;;;0.30;;
19651;SDS011;9974;52.146;14.668;2022-09-09T16:11:27;0.50;;;0.43;;
19651;SDS011;9974;52.146;14.668;2022-09-09T16:13:56;1.23;;;0.52;;
19651;SDS011;9974;52.146;14.668;2022-09-09T16:16:24;0.70;;;0.35;;
19651;SDS011;9974;52.146;14.668;2022-09-09T16:18:56;1.98;;;0.60;;
19651;SDS011;9974;52.146;14.668;2022-09-09T16:21:30;3.58;;;0.82;;
19651;SDS011;9974;52.146;14.668;2022-09-09T16:23:59;2.67;;;0.65;;
19651;SDS011;9974;52.146;14.668;2022-09-09T16:26:31;1.40;;;0.60;;
19651;SDS011;9974;52.146;14.668;2022-09-09T16:28:59;5.53;;;0.90;;
19651;SDS011;9974;52.146;14.668;2022-09-09T16:31:26;4.53;;;1.10;;
19651;SDS011;9974;52.146;14.668;2022-09-09T16:33:53;5.32;;;1.13;;
19651;SDS011;9974;52.146;14.668;2022-09-09T16:36:20;2.60;;;0.88;;
19651;SDS011;9974;52.146;14.668;2022-09-09T16:38:51;1.60;;;0.63;;
19651;SDS011;9974;52.146;14.668;2022-09-09T16:41:28;0.85;;;0.50;;
19651;SDS011;9974;52.146;14.668;2022-09-09T16:43:59;1.88;;;0.60;;
19651;SDS011;9974;52.146;14.668;2022-09-09T16:46:27;2.83;;;0.63;;
19651;SDS011;9974;52.146;14.668;2022-09-09T16:48:58;1.45;;;0.60;;
19651;SDS011;9974;52.146;14.668;2022-09-09T16:51:29;2.15;;;0.50;;
19651;SDS011;9974;52.146;14.668;2022-09-09T16:53:59;2.38;;;1.00;;
19651;SDS011;9974;52.146;14.668;2022-09-09T16:56:27;0.55;;;0.40;;
19651;SDS011;9974;52.146;14.668;2022-09-09T16:58:58;1.50;;;0.60;;
19651;SDS011;9974;52.146;14.668;2022-09-09T17:01:28;2.58;;;0.70;;
19651;SDS011;9974;52.146;14.668;2022-09-09T17:03:58;3.22;;;0.75;;
19651;SDS011;9974;52.146;14.668;2022-09-09T17:06:26;2.45;;;0.80;;
19651;SDS011;9974;52.146;14.668;2022-09-09T17:08:54;1.55;;;0.77;;
19651;SDS011;9974;52.146;14.668;2022-09-09T17:11:24;2.67;;;0.90;;
19651;SDS011;9974;52.146;14.668;2022-09-09T17:13:50;2.65;;;0.70;;
19651;SDS011;9974;52.146;14.668;2022-09-09T17:16:18;1.33;;;0.52;;
19651;SDS011;9974;52.146;14.668;2022-09-09T17:18:46;2.78;;;0.90;;
19651;SDS011;9974;52.146;14.668;2022-09-09T17:21:14;2.40;;;0.82;;
19651;SDS011;9974;52.146;14.668;2022-09-09T17:23:42;1.33;;;0.60;;
19651;SDS011;9974;52.146;14.668;2022-09-09T17:26:11;2.03;;;0.60;;
19651;SDS011;9974;52.146;14.668;2022-09-09T17:28:40;2.13;;;0.77;;
19651;SDS011;9974;52.146;14.668;2022-09-09T17:31:07;3.42;;;0.73;;
19651;SDS011;9974;52.146;14.668;2022-09-09T17:33:35;7.40;;;0.93;;
19651;SDS011;9974;52.146;14.668;2022-09-09T17:36:11;1.98;;;0.60;;
19651;SDS011;9974;52.146;14.668;2022-09-09T17:38:53;3.13;;;1.08;;